METAR Data
IDs: Format: Raw Decoded Include TAF

Data at: 0108 UTC 20 Jul 2019

METAR for:KFOD (Fort Dodge Rgnl, IA, US)
Text:KFOD 200056Z AUTO 23010KT 10SM CLR 32/27 A2969 RMK AO2 SLP068 T03170267
Temperature: 31.7°C ( 89°F)
Dewpoint: 26.7°C ( 80°F) [RH = 75%]
Pressure (altimeter):29.69 inches Hg (1005.5 mb) [Sea level pressure: 1006.8 mb]
Winds:from the SW (230 degrees) at 12 MPH (10 knots; 5.1 m/s)
Visibility:10 or more sm (16+ km)
Ceiling:at least 12,000 feet AGL
Clouds:sky clear below 12,000 feet AGL
QC Flag:automated observation with no human augmentation